Putnam, Illinois
Current Conditions -  °F | °C
As of 9:35 PM on Saturday 22 Nov 2014 (Local Time) from KC75 Reporting Station
Broken Clouds Broken Clouds  
Wind Chill: 52°   Ceiling: 7000
Heat Index: 52°   Visibility: 10mi
Dew Point: 47°   Wind: 12mph
Humidity: 81%   Direction: 200°SSW
Pressure: 29.84"   Gusts: 20mph
Location:  41.18°N, 89.4°W
Report Text: KC75 230335Z AUTO 20010G17KT 10SM BKN070 BKN080 BKN110 11/08 A2984 RMK AO2 T01120081
Loading
Personal Weather Stations






























Interactive Weather Map New forecast layout! Learn more

10-Day Weather Forecast

Advertisements
Track Severe Weather on mobile